New Hampton, NH (03256)

3:47 PM EST on February 10, 2016 (GMT -0500)
Lake Winnipesaukee | | Change Station
CLOSE
Current Station
Personal Weather Station
Location: Meredith, NH
Elevation: 755 ft
Nearby Weather Stations

Elev 755 ft 43.63 °N, 71.53 °W | Updated 15 seconds ago

Overcast
Overcast
33.3 °F
Feels Like 33 °F
N
0.0
Wind Variable Wind from SSE
Gusts 0.0 mph

Today
High -- | Low -- °F
--% Chance of Precip.
Yesterday
High -- | Low -- °F
Precip. -- in
Pressure 29.51 in
Visibility 10.0 miles
Clouds Few 4500 ft
Scattered Clouds 6000 ft
Mostly Cloudy 6500 ft
Windchill 33 °F
Dew Point 24 °F
Humidity 68%
Rainfall 0.00 in
Snow Depth Not available.
6:52 AM 5:08 PM
Waxing Crescent, 7% visible
METAR KLCI 102035Z AUTO 00000KT 10SM FEW045 SCT060 BKN065 00/M04 A2951 RMK AO1
Pressure 29.51 in
Visibility 10.0 miles
Clouds Few 4500 ft
Scattered Clouds 6000 ft
Mostly Cloudy 6500 ft
Windchill 33 °F
Dew Point 24 °F
Humidity 68%
Rainfall 0.00 in
Snow Depth Not available.
6:52 AM 5:08 PM
Waxing Crescent, 7% visible
METAR KLCI 102035Z AUTO 00000KT 10SM FEW045 SCT060 BKN065 00/M04 A2951 RMK AO1

10-Day Weather Forecast

Almanac

Astronomy

Feb. 10, 2016 Rise Set
Actual Time
Civil Twilight
Nautical Twilight
Astronomical Twilight
Moon
Length of Visible Light
Length of Day
Tomorrow will be .
, % of the Moon is Illuminated

Today's Extremes

State Highs State Lows

Community

WunderPhotos

Upload Photos

1,891,945 photos uploaded!

WunderBlog® & News

Nearby

Air Quality

  Air Quality AQ Index Pollutant
Not available.

Snow Depth

Station Depth Elevation

Earthquake Activity

City Distance Mag. Time & Date
Minimum magnitude displayed is 2.5.

Coastal Water Temperatures

Place Temperature

Stations

Nearby Weather Stations

Station Location Temp. Windchill Dew Point Humidity Wind Precip. Elev Updated Type
                   

Watches & Warnings

There are currently no watches in effect.